This is the latest recevied weather packets stored in our database for station/object KC8QDR-1. If no packets are shown the sender has not sent any weather packets the latest 10 day(s).
| Time | Temp. | Humidity | Pressure | Rain* | Wind** | Luminosity | Snow |
|---|---|---|---|---|---|---|---|
| 1777507125 | 9.44° C | 95% | 1015.3 hPa | 0 mm | 1.79 m/s, 345° | - | - |
| 1777506527 | 9.44° C | 95% | 1015.2 hPa | 0 mm | 3.13 m/s, 1° | - | - |
| 1777505928 | 9.44° C | 95% | 1014.8 hPa | 0 mm | 1.79 m/s, 323° | - | - |
| 1777505326 | 8.89° C | 95% | 1014.4 hPa | 0 mm | 2.24 m/s, 1° | - | - |
| 1777504725 | 9.44° C | 95% | 1014.7 hPa | 0 mm | 1.34 m/s, 11° | - | - |
| 1777504124 | 9.44° C | 95% | 1014.8 hPa | 0 mm | 2.68 m/s, 23° | - | - |
| 1777503572 | 9.44° C | 95% | 1014.8 hPa | 0 mm | 1.79 m/s, 340° | - | - |
| 1777503524 | 9.44° C | 95% | 1014.8 hPa | 0 mm | 1.79 m/s, 340° | - | - |
| 1777502926 | 9.44° C | 95% | 1014.7 hPa | 0 mm | 0.89 m/s, 22° | - | - |
| 1777502325 | 8.89° C | 95% | 1014.7 hPa | 0 mm | 0.89 m/s, 18° | - | - |
| 1777501724 | 8.89° C | 95% | 1014.6 hPa | 0 mm | 1.79 m/s, 16° | - | - |
| 1777501125 | 8.89° C | 95% | 1014.6 hPa | 0 mm | 4.47 m/s, 9° | - | - |
| 1777500524 | 8.89° C | 95% | 1014.4 hPa | 0 mm | 2.24 m/s, 359° | - | - |
| 1777499927 | 8.89° C | 96% | 1014.2 hPa | 0 mm | 3.58 m/s, 9° | - | - |
| 1777499325 | 8.89° C | 96% | 1014 hPa | 0 mm | 3.58 m/s, 16° | - | - |
| 1777498725 | 8.89° C | 96% | 1013.9 hPa | 0 mm | 4.02 m/s, 23° | - | - |
| 1777498124 | 8.89° C | 96% | 1013.8 hPa | 0 mm | 1.79 m/s, 43° | - | - |
| 1777497525 | 8.89° C | 96% | 1013.8 hPa | 0 mm | 3.58 m/s, 23° | - | - |
| 1777496925 | 9.44° C | 96% | 1013.9 hPa | 0 mm | 2.68 m/s, 344° | - | - |
| 1777496325 | 9.44° C | 96% | 1014 hPa | 0 mm | 2.24 m/s, 355° | - | - |
| 1777495725 | 9.44° C | 96% | 1013.9 hPa | 0 mm | 2.68 m/s, 359° | - | - |
| 1777495125 | 10° C | 96% | 1014 hPa | 0 mm | 3.13 m/s, 16° | - | - |
| 1777494524 | 11.11° C | 95% | 1014.2 hPa | 0 mm | 3.58 m/s, 15° | - | - |
| 1777493924 | 11.67° C | 94% | 1014.3 hPa | 0 mm | 2.68 m/s, 4° | - | - |
| 1777493324 | 12.22° C | 95% | 1014.4 hPa | 0.25 mm | 3.58 m/s, 359° | - | - |
* Rain latest hour (hover to see other rain measurements)
** Current wind speed in m/s (hover to see current wind gust speed)